Codajas, Brazil
Current Conditions -  °F | °C
As of 4:00 AM on Sunday 26 Oct 2014 (Local Time) from SBEG Reporting Station
Broken Clouds Broken Clouds  
Wind Chill: 75°   Ceiling: 700
Heat Index: 75°   Visibility: 6mi
Dew Point: 72°   Wind: 6mph
Humidity: 89%   Direction: 160°SSE
Pressure: 29.8"   Gusts: NA
Location:  3.82°S, 62.07°W
Report Text: SBEG 260800Z 16005KT 9999 BKN007 24/22 Q1009
Loading
Personal Weather Stations






























Interactive Weather Map
Tropical Storm Tracking
New forecast layout! Learn more

10-Day Weather Forecast

Advertisements
Track Severe Weather on mobile